Terminal Aerodrome Forecast
Issued by NWS

Home | Current Version | Previous Version | Text Only | Print | Product List | Glossary On
Versions: 1 2 3 4 5 6 7 8 9 10 11 12 13 14 15 16 17 18 19 20 21
000
FTUS42 KTAE 191604 AAB
TAFDHN
TAF AMD
KDHN 191604Z 1916/2012 22012KT 5SM -RA OVC100
     FM191800 22010G15KT P6SM BKN050
     FM200000 21011KT P6SM BKN250
     FM200300 19006KT P6SM OVC250
     FM200900 22008KT 5SM BR OVC001=

USA.gov is the U.S. government's official web portal to all federal, state and local government web resources and services.